createdAt,value
2023-03-27T00:01:26.634Z,99.90
2023-03-27T00:03:55.588Z,99.90
2023-03-27T00:06:24.791Z,99.90
2023-03-27T00:08:53.167Z,99.90
2023-03-27T00:11:22.271Z,99.90
2023-03-27T00:13:54.411Z,99.90
2023-03-27T00:16:26.432Z,99.90
2023-03-27T00:18:55.251Z,99.90
2023-03-27T00:21:24.055Z,99.90
2023-03-27T00:23:52.317Z,99.90
2023-03-27T00:26:21.957Z,99.90
2023-03-27T00:28:49.678Z,99.90
2023-03-27T00:31:17.452Z,99.90
2023-03-27T00:33:45.139Z,99.90
2023-03-27T00:36:12.804Z,99.90
2023-03-27T00:38:40.449Z,99.90
2023-03-27T00:41:08.858Z,99.90
2023-03-27T00:43:43.410Z,99.90
2023-03-27T00:46:35.630Z,99.90
2023-03-27T00:49:08.193Z,99.90
2023-03-27T00:51:37.628Z,99.90
2023-03-27T00:54:06.261Z,99.90
2023-03-27T00:56:34.498Z,99.90
2023-03-27T00:59:06.882Z,99.90
2023-03-27T01:01:35.945Z,99.90
2023-03-27T01:04:07.889Z,99.90
2023-03-27T01:06:36.754Z,99.90
2023-03-27T01:09:04.629Z,99.90
2023-03-27T01:12:10.656Z,99.90
2023-03-27T01:15:09.686Z,99.90
2023-03-27T01:18:02.412Z,99.90
2023-03-27T01:21:06.999Z,99.90
2023-03-27T01:24:00.875Z,99.90
2023-03-27T01:27:01.446Z,99.90
2023-03-27T01:30:05.545Z,99.90
2023-03-27T01:32:51.037Z,99.90
2023-03-27T01:35:37.069Z,99.90
2023-03-27T01:39:00.986Z,99.90
2023-03-27T01:41:32.290Z,99.90
2023-03-27T01:44:36.475Z,99.90
2023-03-27T01:47:52.261Z,99.90
2023-03-27T01:50:50.648Z,99.90
2023-03-27T01:53:27.029Z,99.90
2023-03-27T01:56:18.271Z,99.90
2023-03-27T01:58:49.575Z,99.90
2023-03-27T02:01:29.293Z,99.90
2023-03-27T02:04:02.205Z,99.90
2023-03-27T02:06:39.400Z,99.90
2023-03-27T02:09:15.829Z,99.90
2023-03-27T02:12:30.413Z,99.90
2023-03-27T02:15:23.970Z,99.90
2023-03-27T02:18:06.047Z,99.90
2023-03-27T02:20:36.751Z,99.90
2023-03-27T02:23:07.635Z,99.90
2023-03-27T02:25:39.654Z,99.90
2023-03-27T02:28:56.615Z,99.90
2023-03-27T02:32:07.328Z,99.90
2023-03-27T02:35:17.486Z,99.90
2023-03-27T02:37:59.389Z,99.90
2023-03-27T02:40:58.664Z,99.90
2023-03-27T02:44:19.245Z,99.90
2023-03-27T02:47:28.455Z,99.90
2023-03-27T02:50:09.385Z,99.90
2023-03-27T02:52:51.971Z,99.90
2023-03-27T02:55:44.784Z,99.90
2023-03-27T02:58:24.433Z,99.90
2023-03-27T03:01:00.285Z,99.90
2023-03-27T03:03:41.770Z,99.90
2023-03-27T03:06:30.283Z,99.90
2023-03-27T03:09:05.916Z,99.90
2023-03-27T03:11:46.235Z,99.90
2023-03-27T03:14:14.331Z,99.90
2023-03-27T03:16:42.202Z,99.90
2023-03-27T03:19:09.892Z,99.90
2023-03-27T03:21:37.570Z,99.90
2023-03-27T03:24:10.667Z,99.90
2023-03-27T03:26:38.205Z,99.90
2023-03-27T03:29:05.930Z,99.90
2023-03-27T03:31:44.245Z,99.90
2023-03-27T03:34:16.701Z,99.90
2023-03-27T03:36:49.021Z,99.90
2023-03-27T03:39:19.398Z,99.90
2023-03-27T03:41:50.056Z,99.90
2023-03-27T03:44:17.761Z,99.90
2023-03-27T03:46:45.708Z,99.90
2023-03-27T03:49:13.259Z,99.90
2023-03-27T03:51:40.986Z,99.90
2023-03-27T03:54:09.298Z,99.90
2023-03-27T03:56:41.305Z,99.90
2023-03-27T03:59:10.906Z,99.90
2023-03-27T04:01:55.472Z,99.90
2023-03-27T04:04:23.341Z,99.90
2023-03-27T04:07:05.559Z,99.90
2023-03-27T04:09:35.963Z,99.90
2023-03-27T04:12:09.931Z,99.90
2023-03-27T04:14:57.087Z,99.90
2023-03-27T04:17:48.546Z,99.90
2023-03-27T04:20:18.593Z,99.90
2023-03-27T04:22:51.364Z,99.90
2023-03-27T04:25:23.799Z,99.90
2023-03-27T04:27:51.981Z,99.90
2023-03-27T04:30:25.353Z,99.90
2023-03-27T04:33:25.684Z,99.90
2023-03-27T04:36:31.305Z,99.00
2023-03-27T04:39:10.398Z,99.90
2023-03-27T04:41:38.747Z,99.90
2023-03-27T04:44:07.355Z,97.30
2023-03-27T04:46:39.167Z,98.20
2023-03-27T04:49:11.084Z,98.50
2023-03-27T04:51:56.066Z,96.80
2023-03-27T04:54:24.110Z,98.20
2023-03-27T04:56:53.208Z,97.70
2023-03-27T04:59:22.270Z,96.60
2023-03-27T05:02:10.918Z,96.30
2023-03-27T05:04:58.436Z,98.00
2023-03-27T05:07:32.202Z,97.60
2023-03-27T05:10:01.974Z,95.50
2023-03-27T05:12:30.210Z,96.50
2023-03-27T05:15:05.962Z,95.70
2023-03-27T05:17:41.888Z,97.10
2023-03-27T05:20:21.772Z,96.20
2023-03-27T05:22:56.312Z,96.90
2023-03-27T05:25:28.952Z,98.20
2023-03-27T05:27:58.132Z,96.40
2023-03-27T05:30:30.100Z,95.90
2023-03-27T05:33:14.043Z,97.10
2023-03-27T05:35:42.783Z,97.50
2023-03-27T05:38:12.064Z,95.40
2023-03-27T05:40:44.318Z,97.50
2023-03-27T05:43:16.185Z,97.70
2023-03-27T05:45:44.565Z,96.00
2023-03-27T05:48:12.440Z,96.10
2023-03-27T05:50:42.206Z,96.30
2023-03-27T05:53:20.974Z,95.00
2023-03-27T05:56:20.416Z,95.80
2023-03-27T05:58:57.473Z,96.30
2023-03-27T06:01:26.781Z,95.70
2023-03-27T06:03:56.696Z,96.20
2023-03-27T06:06:32.864Z,96.70
2023-03-27T06:09:00.711Z,95.20
2023-03-27T06:11:29.296Z,95.00
2023-03-27T06:13:58.762Z,94.70
2023-03-27T06:16:40.137Z,96.80
2023-03-27T06:19:36.326Z,96.40
2023-03-27T06:22:05.068Z,97.10
2023-03-27T06:24:34.028Z,96.20
2023-03-27T06:27:03.979Z,96.00
2023-03-27T06:29:37.233Z,94.20
2023-03-27T06:32:04.930Z,94.40
2023-03-27T06:34:38.051Z,94.00
2023-03-27T06:37:29.354Z,93.20
2023-03-27T06:39:57.616Z,93.50
2023-03-27T06:42:26.282Z,94.00
2023-03-27T06:45:07.628Z,93.40
2023-03-27T06:48:17.034Z,94.20
2023-03-27T06:50:50.033Z,94.70
2023-03-27T06:53:27.309Z,92.60
2023-03-27T06:55:59.790Z,93.60
2023-03-27T06:58:35.636Z,95.10
2023-03-27T07:01:03.515Z,93.70
2023-03-27T07:03:38.626Z,95.00
2023-03-27T07:06:07.536Z,95.30
2023-03-27T07:08:44.796Z,93.20
2023-03-27T07:11:13.832Z,93.80
2023-03-27T07:13:48.777Z,93.60
2023-03-27T07:16:23.611Z,93.50
2023-03-27T07:18:51.197Z,93.40
2023-03-27T07:21:18.805Z,92.50
2023-03-27T07:23:46.408Z,93.50
2023-03-27T07:26:17.980Z,94.30
2023-03-27T07:29:21.684Z,92.60
2023-03-27T07:31:58.449Z,92.00
2023-03-27T07:34:35.130Z,90.20
2023-03-27T07:37:23.982Z,91.60
2023-03-27T07:40:16.515Z,89.40
2023-03-27T07:42:54.952Z,87.30
2023-03-27T07:45:23.989Z,87.80
2023-03-27T07:48:08.589Z,88.30
2023-03-27T07:50:38.112Z,89.90
2023-03-27T07:53:09.119Z,89.60
2023-03-27T07:55:41.952Z,89.00
2023-03-27T07:58:10.543Z,86.20
2023-03-27T08:00:42.730Z,86.80
2023-03-27T08:03:14.330Z,86.70
2023-03-27T08:05:57.658Z,85.20
2023-03-27T08:08:27.217Z,86.40
2023-03-27T08:11:02.304Z,85.00
2023-03-27T08:13:34.605Z,84.00
2023-03-27T08:16:20.733Z,87.20
2023-03-27T08:18:49.673Z,87.00
2023-03-27T08:21:17.530Z,83.10
2023-03-27T08:23:50.172Z,81.90
2023-03-27T08:26:36.725Z,83.00
2023-03-27T08:29:08.868Z,76.20
2023-03-27T08:31:38.044Z,75.10
2023-03-27T08:34:06.751Z,76.10
2023-03-27T08:36:43.824Z,74.40
2023-03-27T08:39:11.826Z,73.00
2023-03-27T08:41:55.806Z,72.90
2023-03-27T08:44:33.048Z,72.00
2023-03-27T08:47:26.903Z,73.40
2023-03-27T08:50:38.815Z,74.60
2023-03-27T08:54:02.786Z,71.30
2023-03-27T08:56:32.781Z,70.20
2023-03-27T08:59:01.702Z,69.50
2023-03-27T09:01:51.798Z,67.30
2023-03-27T09:04:42.227Z,68.30
2023-03-27T09:07:56.915Z,66.40
2023-03-27T09:10:49.771Z,66.60
2023-03-27T09:13:51.061Z,68.20
2023-03-27T09:16:35.727Z,67.60
2023-03-27T09:19:36.964Z,66.70
2023-03-27T09:22:13.813Z,66.50
2023-03-27T09:25:08.304Z,68.60
2023-03-27T09:27:57.489Z,63.30
2023-03-27T09:30:40.123Z,63.20
2023-03-27T09:33:16.356Z,63.90
2023-03-27T09:35:46.933Z,63.40
2023-03-27T09:38:34.887Z,64.00
2023-03-27T09:41:16.247Z,62.90
2023-03-27T09:44:03.510Z,62.80
2023-03-27T09:46:36.562Z,62.20
2023-03-27T09:49:13.781Z,59.60
2023-03-27T09:51:51.997Z,62.80
2023-03-27T09:54:55.894Z,59.80
2023-03-27T09:57:35.471Z,59.70
2023-03-27T10:00:33.956Z,58.30
2023-03-27T10:03:18.224Z,57.70
2023-03-27T10:06:07.973Z,57.10
2023-03-27T10:08:51.977Z,54.60
2023-03-27T10:11:31.679Z,51.00
2023-03-27T10:14:19.148Z,52.30
2023-03-27T10:16:47.911Z,54.90
2023-03-27T10:19:36.283Z,56.60
2023-03-27T10:22:31.488Z,57.90
2023-03-27T10:25:02.855Z,56.00
2023-03-27T10:27:48.196Z,57.30
2023-03-27T10:30:38.076Z,55.30
2023-03-27T10:33:39.689Z,52.30
2023-03-27T10:36:21.408Z,51.10
2023-03-27T10:39:00.903Z,52.30
2023-03-27T10:41:42.196Z,55.00
2023-03-27T10:44:21.345Z,54.60
2023-03-27T10:46:56.211Z,51.70
2023-03-27T10:49:44.881Z,52.20
2023-03-27T10:52:53.421Z,50.90
2023-03-27T10:55:48.408Z,50.90
2023-03-27T10:58:52.041Z,48.40
2023-03-27T11:01:35.186Z,52.10
2023-03-27T11:04:21.567Z,52.70
2023-03-27T11:06:57.317Z,52.70
2023-03-27T11:09:36.375Z,52.70
2023-03-27T11:12:16.626Z,49.20
2023-03-27T11:15:02.460Z,50.00
2023-03-27T11:18:02.932Z,49.30
2023-03-27T11:20:50.271Z,50.50
2023-03-27T11:23:39.020Z,52.00
2023-03-27T11:26:20.048Z,53.80
2023-03-27T11:28:54.640Z,53.70
2023-03-27T11:31:46.333Z,52.90
2023-03-27T11:34:59.711Z,51.00
2023-03-27T11:37:52.550Z,49.20
2023-03-27T11:40:37.905Z,47.40
2023-03-27T11:43:08.659Z,46.30
2023-03-27T11:46:10.406Z,48.00
2023-03-27T11:49:09.488Z,47.60
2023-03-27T11:52:06.936Z,47.70
2023-03-27T11:55:06.713Z,48.20
2023-03-27T11:57:55.840Z,48.00
2023-03-27T12:00:56.581Z,46.80
2023-03-27T12:03:52.645Z,48.30
2023-03-27T12:06:45.290Z,45.90
2023-03-27T12:09:35.966Z,45.40
2023-03-27T12:13:11.116Z,46.70
2023-03-27T12:15:39.271Z,46.90
2023-03-27T12:19:02.178Z,48.00
2023-03-27T12:22:22.531Z,48.80
2023-03-27T12:25:26.162Z,51.00
2023-03-27T12:29:23.329Z,52.00
2023-03-27T12:32:20.842Z,53.80
2023-03-27T12:35:00.531Z,54.10
2023-03-27T12:38:04.199Z,52.50
2023-03-27T12:40:48.492Z,51.70
2023-03-27T12:43:41.116Z,52.10
2023-03-27T12:46:23.914Z,48.60
2023-03-27T12:49:07.895Z,49.50
2023-03-27T12:52:02.711Z,47.50
2023-03-27T12:55:18.325Z,49.90
2023-03-27T12:58:00.646Z,49.40
2023-03-27T13:01:01.243Z,48.40
2023-03-27T13:04:23.014Z,48.90
2023-03-27T13:07:14.884Z,49.80
2023-03-27T13:10:14.006Z,50.80
2023-03-27T13:13:04.458Z,53.90
2023-03-27T13:16:02.917Z,53.90
2023-03-27T13:19:09.762Z,54.90
2023-03-27T13:22:41.032Z,57.20
2023-03-27T13:25:43.084Z,67.30
2023-03-27T13:28:38.207Z,70.80
2023-03-27T13:31:33.949Z,74.40
2023-03-27T13:34:27.755Z,77.50
2023-03-27T13:37:13.927Z,81.40
2023-03-27T13:39:56.394Z,84.80
2023-03-27T13:42:44.735Z,87.20
2023-03-27T13:45:38.389Z,89.30
2023-03-27T13:48:56.118Z,89.20
2023-03-27T13:51:52.404Z,89.10
2023-03-27T13:54:49.609Z,84.00
2023-03-27T13:57:56.022Z,84.20
2023-03-27T14:01:28.065Z,84.50
2023-03-27T14:04:44.720Z,83.70
2023-03-27T14:08:00.911Z,83.00
2023-03-27T14:11:10.780Z,81.30
2023-03-27T14:15:06.912Z,78.30
2023-03-27T14:18:23.229Z,80.80
2023-03-27T14:21:02.146Z,80.00
2023-03-27T14:24:00.255Z,81.00
2023-03-27T14:26:42.079Z,77.10
2023-03-27T14:29:15.398Z,77.20
2023-03-27T14:31:47.674Z,78.00
2023-03-27T14:34:24.446Z,77.60
2023-03-27T14:37:30.228Z,75.50
2023-03-27T14:40:20.052Z,76.10
2023-03-27T14:42:51.111Z,73.40
2023-03-27T14:45:27.417Z,74.60
2023-03-27T14:48:39.755Z,73.40
2023-03-27T14:51:25.360Z,72.80
2023-03-27T14:54:02.054Z,70.80
2023-03-27T14:56:47.197Z,70.90
2023-03-27T14:59:36.159Z,68.40
2023-03-27T15:02:31.824Z,69.50
2023-03-27T15:05:16.236Z,70.70
2023-03-27T15:07:49.000Z,72.60
2023-03-27T15:10:52.080Z,74.70
2023-03-27T15:13:37.096Z,77.90
2023-03-27T15:16:14.019Z,78.00
2023-03-27T15:18:56.506Z,80.80
2023-03-27T15:24:39.561Z,84.20
2023-03-27T15:27:20.973Z,89.60
2023-03-27T15:29:57.637Z,92.90
2023-03-27T15:32:42.803Z,95.70
2023-03-27T15:35:30.193Z,98.70
2023-03-27T15:37:58.089Z,99.90
2023-03-27T15:40:39.664Z,99.90
2023-03-27T15:43:15.715Z,99.10
2023-03-27T15:46:17.177Z,98.80
2023-03-27T15:48:49.179Z,98.10
2023-03-27T15:51:19.279Z,98.50
2023-03-27T15:53:55.853Z,97.70
2023-03-27T15:56:43.643Z,97.60
2023-03-27T15:59:14.986Z,98.80
2023-03-27T16:01:53.595Z,99.90
2023-03-27T16:04:27.915Z,98.80
2023-03-27T16:07:31.357Z,99.50
2023-03-27T16:10:06.808Z,97.50
2023-03-27T16:12:42.809Z,94.30
2023-03-27T16:15:31.534Z,94.30
2023-03-27T16:18:04.270Z,95.80
2023-03-27T16:20:38.679Z,94.40
2023-03-27T16:23:06.304Z,94.20
2023-03-27T16:25:34.122Z,93.80
2023-03-27T16:28:02.099Z,93.30
2023-03-27T16:30:36.070Z,94.40
2023-03-27T16:33:15.349Z,94.90
2023-03-27T16:35:44.138Z,94.50
2023-03-27T16:38:13.642Z,93.20
2023-03-27T16:40:42.251Z,92.10
2023-03-27T16:43:10.368Z,92.10
2023-03-27T16:45:38.709Z,89.80
2023-03-27T16:48:07.930Z,90.40
2023-03-27T16:50:35.505Z,88.70
2023-03-27T16:53:03.023Z,90.10
2023-03-27T16:55:30.569Z,88.40
2023-03-27T16:57:58.181Z,89.70
2023-03-27T17:00:26.636Z,89.70
2023-03-27T17:02:54.377Z,91.30
2023-03-27T17:05:21.961Z,91.20
2023-03-27T17:07:49.704Z,90.60
2023-03-27T17:10:17.265Z,91.20
2023-03-27T17:12:44.787Z,91.00
2023-03-27T17:15:12.659Z,91.40
2023-03-27T17:17:40.238Z,91.70
2023-03-27T17:20:08.180Z,92.60
2023-03-27T17:22:36.040Z,92.70
2023-03-27T17:25:06.166Z,92.70
2023-03-27T17:27:34.007Z,92.80
2023-03-27T17:30:01.727Z,92.20
2023-03-27T17:32:29.398Z,93.10
2023-03-27T17:34:56.951Z,93.70
2023-03-27T17:37:25.933Z,93.90
2023-03-27T17:39:53.599Z,94.10
2023-03-27T17:42:21.171Z,94.00
2023-03-27T17:44:48.680Z,94.10
2023-03-27T17:47:16.600Z,94.00
2023-03-27T17:49:45.058Z,94.30
2023-03-27T17:52:13.327Z,94.50
2023-03-27T17:54:41.493Z,94.60
2023-03-27T17:57:09.000Z,94.60
2023-03-27T17:59:38.413Z,94.10
2023-03-27T18:02:07.303Z,93.70
2023-03-27T18:04:35.252Z,93.60
2023-03-27T18:07:02.764Z,93.60
2023-03-27T18:09:32.975Z,93.60
2023-03-27T18:12:00.749Z,93.80
2023-03-27T18:14:28.298Z,93.80
2023-03-27T18:16:55.866Z,94.00
2023-03-27T18:19:25.069Z,94.20
2023-03-27T18:21:52.645Z,94.80
2023-03-27T18:24:20.233Z,95.00
2023-03-27T18:26:48.171Z,94.70
2023-03-27T18:29:15.800Z,95.10
2023-03-27T18:31:43.398Z,97.40
2023-03-27T18:34:11.381Z,97.70
2023-03-27T18:36:38.948Z,99.00
2023-03-27T18:39:06.766Z,98.00
2023-03-27T18:41:35.683Z,97.20
2023-03-27T18:44:03.297Z,97.00
2023-03-27T18:46:30.938Z,96.30
2023-03-27T18:48:58.703Z,96.70
2023-03-27T18:51:26.344Z,96.00
2023-03-27T18:53:54.069Z,97.00
2023-03-27T18:56:21.590Z,97.20
2023-03-27T18:58:49.424Z,97.40
2023-03-27T19:01:17.331Z,98.90
2023-03-27T19:03:44.914Z,99.00
2023-03-27T19:06:12.795Z,99.30
2023-03-27T19:08:42.241Z,98.80
2023-03-27T19:11:10.854Z,99.70
2023-03-27T19:13:56.714Z,99.90
2023-03-27T19:16:33.422Z,99.90
2023-03-27T19:19:39.438Z,99.90
2023-03-27T19:22:26.729Z,99.90
2023-03-27T19:25:00.540Z,99.90
2023-03-27T19:27:28.577Z,99.90
2023-03-27T19:30:09.558Z,99.90
2023-03-27T19:32:38.389Z,99.90
2023-03-27T19:35:07.104Z,99.90
2023-03-27T19:37:35.372Z,99.90
2023-03-27T19:40:05.632Z,99.90
2023-03-27T19:42:33.145Z,99.90
2023-03-27T19:45:00.859Z,99.90
2023-03-27T19:47:28.466Z,99.90
2023-03-27T19:49:58.737Z,99.90
2023-03-27T19:53:05.387Z,99.90
2023-03-27T19:55:35.978Z,99.90
2023-03-27T19:58:03.500Z,99.90
2023-03-27T20:00:32.095Z,99.90
2023-03-27T20:02:59.776Z,99.90
2023-03-27T20:05:29.506Z,99.90
2023-03-27T20:07:57.145Z,99.90
2023-03-27T20:10:26.972Z,99.90
2023-03-27T20:12:54.570Z,99.90
2023-03-27T20:15:22.508Z,99.90
2023-03-27T20:17:50.207Z,99.90
2023-03-27T20:20:18.674Z,99.90
2023-03-27T20:22:57.149Z,99.90
2023-03-27T20:25:25.687Z,99.90
2023-03-27T20:27:53.229Z,99.90
2023-03-27T20:30:20.844Z,99.90
2023-03-27T20:32:50.811Z,99.90
2023-03-27T20:35:24.465Z,99.90
2023-03-27T20:37:56.007Z,99.90
2023-03-27T20:40:25.902Z,99.90
2023-03-27T20:43:02.900Z,98.00
2023-03-27T20:45:31.118Z,99.50
2023-03-27T20:48:03.180Z,97.50
2023-03-27T20:50:31.611Z,96.80
2023-03-27T20:52:59.266Z,95.80
2023-03-27T20:58:00.692Z,97.00
2023-03-27T21:00:28.210Z,97.00
2023-03-27T21:02:56.097Z,97.00
2023-03-27T21:05:23.753Z,97.30
2023-03-27T21:07:52.450Z,96.70
2023-03-27T21:10:21.432Z,97.20
2023-03-27T21:12:51.224Z,97.90
2023-03-27T21:15:18.830Z,98.30
2023-03-27T21:17:46.558Z,98.30
2023-03-27T21:20:14.262Z,98.00
2023-03-27T21:22:41.788Z,97.60
2023-03-27T21:25:09.581Z,97.80
2023-03-27T21:27:37.656Z,97.50
2023-03-27T21:30:06.755Z,97.60
2023-03-27T21:32:34.281Z,97.70
2023-03-27T21:35:01.800Z,96.80
2023-03-27T21:37:29.275Z,97.10
2023-03-27T21:39:56.798Z,96.90
2023-03-27T21:42:24.621Z,96.50
2023-03-27T21:44:55.651Z,95.80
2023-03-27T21:47:34.414Z,96.00
2023-03-27T21:50:09.162Z,96.00
2023-03-27T21:52:36.694Z,95.80
2023-03-27T21:55:04.676Z,96.00
2023-03-27T21:57:32.200Z,95.50
2023-03-27T21:59:59.728Z,96.00
2023-03-27T22:02:27.307Z,96.00
2023-03-27T22:04:54.894Z,95.90
2023-03-27T22:07:22.402Z,96.60
2023-03-27T22:09:49.990Z,96.70
2023-03-27T22:12:17.733Z,96.90
2023-03-27T22:14:45.476Z,96.70
2023-03-27T22:17:13.141Z,96.90
2023-03-27T22:19:40.744Z,96.50
2023-03-27T22:22:08.265Z,97.30
2023-03-27T22:24:35.815Z,97.80
2023-03-27T22:27:04.393Z,98.00
2023-03-27T22:29:32.604Z,98.00
2023-03-27T22:32:00.273Z,97.80
2023-03-27T22:34:27.859Z,98.50
2023-03-27T22:36:55.378Z,98.30
2023-03-27T22:39:22.960Z,98.30
2023-03-27T22:41:50.440Z,97.80
2023-03-27T22:44:18.122Z,97.50
2023-03-27T22:46:45.693Z,97.20
2023-03-27T22:49:13.241Z,97.50
2023-03-27T22:51:40.988Z,96.80
2023-03-27T22:54:08.665Z,96.90
2023-03-27T22:56:36.295Z,97.40
2023-03-27T22:59:03.930Z,97.30
2023-03-27T23:01:31.488Z,97.40
2023-03-27T23:03:59.140Z,97.40
2023-03-27T23:06:26.714Z,96.80
2023-03-27T23:08:54.232Z,97.00
2023-03-27T23:11:22.308Z,97.10
2023-03-27T23:13:50.217Z,98.20
2023-03-27T23:16:17.866Z,98.60
2023-03-27T23:18:45.449Z,97.80
2023-03-27T23:21:16.604Z,98.40
2023-03-27T23:23:44.762Z,97.00
2023-03-27T23:26:12.775Z,95.90
2023-03-27T23:28:42.286Z,96.60
2023-03-27T23:31:18.668Z,95.40
2023-03-27T23:33:51.070Z,95.40
2023-03-27T23:36:23.335Z,94.50
2023-03-27T23:38:52.188Z,94.70
2023-03-27T23:41:21.005Z,93.60
2023-03-27T23:43:49.009Z,93.90
2023-03-27T23:46:17.379Z,93.20
2023-03-27T23:48:45.901Z,93.90
2023-03-27T23:51:16.151Z,93.50
2023-03-27T23:53:43.943Z,92.30
2023-03-27T23:56:11.978Z,92.70
2023-03-27T23:58:39.633Z,92.20
